sensor_id;sensor_type;location;lat;lon;timestamp;temperature;humidity
2757;DHT22;1386;50.862;6.494;2022-10-31T02:11:59;14.60;99.90
2757;DHT22;1386;50.862;6.494;2022-10-31T02:14:28;14.50;99.90
2757;DHT22;1386;50.862;6.494;2022-10-31T02:16:56;14.40;99.90
2757;DHT22;1386;50.862;6.494;2022-10-31T02:19:29;14.40;99.90
2757;DHT22;1386;50.862;6.494;2022-10-31T02:22:04;14.30;99.90
2757;DHT22;1386;50.862;6.494;2022-10-31T02:24:43;14.30;99.90
2757;DHT22;1386;50.862;6.494;2022-10-31T02:27:39;14.20;99.90
2757;DHT22;1386;50.862;6.494;2022-10-31T02:30:11;14.20;99.90
2757;DHT22;1386;50.862;6.494;2022-10-31T02:32:50;14.10;99.90
2757;DHT22;1386;50.862;6.494;2022-10-31T02:35:28;14.10;99.90
2757;DHT22;1386;50.862;6.494;2022-10-31T02:38:04;14.10;99.90
2757;DHT22;1386;50.862;6.494;2022-10-31T02:40:36;14.10;99.90
2757;DHT22;1386;50.862;6.494;2022-10-31T02:43:12;14.00;99.90
2757;DHT22;1386;50.862;6.494;2022-10-31T02:45:44;14.10;99.90
2757;DHT22;1386;50.862;6.494;2022-10-31T02:48:19;14.00;99.90
2757;DHT22;1386;50.862;6.494;2022-10-31T02:50:51;14.00;99.90
2757;DHT22;1386;50.862;6.494;2022-10-31T02:53:19;14.00;99.90
2757;DHT22;1386;50.862;6.494;2022-10-31T02:55:55;13.90;99.90
2757;DHT22;1386;50.862;6.494;2022-10-31T02:58:26;13.90;99.90
2757;DHT22;1386;50.862;6.494;2022-10-31T03:01:22;14.00;99.90
2757;DHT22;1386;50.862;6.494;2022-10-31T03:04:04;14.00;99.90
2757;DHT22;1386;50.862;6.494;2022-10-31T03:06:39;13.90;99.90
2757;DHT22;1386;50.862;6.494;2022-10-31T03:09:12;13.90;99.90
2757;DHT22;1386;50.862;6.494;2022-10-31T03:11:45;13.80;99.90
2757;DHT22;1386;50.862;6.494;2022-10-31T03:14:19;13.80;99.90
2757;DHT22;1386;50.862;6.494;2022-10-31T03:16:49;13.80;99.90
2757;DHT22;1386;50.862;6.494;2022-10-31T03:19:21;13.80;99.90
2757;DHT22;1386;50.862;6.494;2022-10-31T03:21:53;13.80;99.90
2757;DHT22;1386;50.862;6.494;2022-10-31T03:24:22;13.70;99.90
2757;DHT22;1386;50.862;6.494;2022-10-31T03:26:53;13.70;99.90
2757;DHT22;1386;50.862;6.494;2022-10-31T03:29:25;13.70;99.90
2757;DHT22;1386;50.862;6.494;2022-10-31T03:31:57;13.70;99.90
2757;DHT22;1386;50.862;6.494;2022-10-31T03:34:27;13.70;99.90
2757;DHT22;1386;50.862;6.494;2022-10-31T03:36:57;13.70;99.90
2757;DHT22;1386;50.862;6.494;2022-10-31T03:39:28;13.60;99.90
2757;DHT22;1386;50.862;6.494;2022-10-31T03:42:05;13.60;99.90
2757;DHT22;1386;50.862;6.494;2022-10-31T03:44:35;13.60;99.90
2757;DHT22;1386;50.862;6.494;2022-10-31T03:47:03;13.60;99.90
2757;DHT22;1386;50.862;6.494;2022-10-31T03:49:32;13.60;99.90
2757;DHT22;1386;50.862;6.494;2022-10-31T03:52:04;13.70;99.90
2757;DHT22;1386;50.862;6.494;2022-10-31T03:54:37;13.70;99.90
2757;DHT22;1386;50.862;6.494;2022-10-31T03:57:12;13.70;99.90
2757;DHT22;1386;50.862;6.494;2022-10-31T03:59:43;13.80;99.90
2757;DHT22;1386;50.862;6.494;2022-10-31T04:02:14;13.80;99.90
2757;DHT22;1386;50.862;6.494;2022-10-31T04:04:43;13.80;99.90
2757;DHT22;1386;50.862;6.494;2022-10-31T04:07:12;13.90;99.90
2757;DHT22;1386;50.862;6.494;2022-10-31T04:09:42;13.90;99.90
2757;DHT22;1386;50.862;6.494;2022-10-31T04:12:12;13.90;99.90
2757;DHT22;1386;50.862;6.494;2022-10-31T04:14:42;13.90;99.90
2757;DHT22;1386;50.862;6.494;2022-10-31T04:17:12;13.90;99.90
2757;DHT22;1386;50.862;6.494;2022-10-31T04:19:40;13.90;99.90
2757;DHT22;1386;50.862;6.494;2022-10-31T04:22:09;13.90;99.90
2757;DHT22;1386;50.862;6.494;2022-10-31T04:24:37;13.90;99.90
2757;DHT22;1386;50.862;6.494;2022-10-31T04:27:04;14.00;99.90
2757;DHT22;1386;50.862;6.494;2022-10-31T04:29:31;14.00;99.90
2757;DHT22;1386;50.862;6.494;2022-10-31T04:31:58;14.00;99.90
2757;DHT22;1386;50.862;6.494;2022-10-31T04:34:25;14.00;99.90
2757;DHT22;1386;50.862;6.494;2022-10-31T04:36:52;14.00;99.90
2757;DHT22;1386;50.862;6.494;2022-10-31T04:39:20;14.00;99.90
2757;DHT22;1386;50.862;6.494;2022-10-31T04:41:47;14.00;99.90
2757;DHT22;1386;50.862;6.494;2022-10-31T04:44:14;14.00;99.90
2757;DHT22;1386;50.862;6.494;2022-10-31T04:46:40;14.00;99.90
2757;DHT22;1386;50.862;6.494;2022-10-31T04:49:07;14.00;99.90
2757;DHT22;1386;50.862;6.494;2022-10-31T04:51:34;14.00;99.90
2757;DHT22;1386;50.862;6.494;2022-10-31T04:54:01;14.00;99.90
2757;DHT22;1386;50.862;6.494;2022-10-31T04:56:29;14.00;99.90
2757;DHT22;1386;50.862;6.494;2022-10-31T04:58:56;14.00;99.90
2757;DHT22;1386;50.862;6.494;2022-10-31T05:01:23;14.00;99.90
2757;DHT22;1386;50.862;6.494;2022-10-31T05:03:50;14.00;99.90
2757;DHT22;1386;50.862;6.494;2022-10-31T05:06:16;14.00;99.90
2757;DHT22;1386;50.862;6.494;2022-10-31T05:08:43;14.00;99.90
2757;DHT22;1386;50.862;6.494;2022-10-31T05:11:10;14.10;99.90
2757;DHT22;1386;50.862;6.494;2022-10-31T05:13:38;14.10;99.90
2757;DHT22;1386;50.862;6.494;2022-10-31T05:16:05;14.10;99.90
2757;DHT22;1386;50.862;6.494;2022-10-31T05:18:32;14.10;99.90
2757;DHT22;1386;50.862;6.494;2022-10-31T05:20:59;14.10;99.90
2757;DHT22;1386;50.862;6.494;2022-10-31T05:23:26;14.10;99.90
2757;DHT22;1386;50.862;6.494;2022-10-31T05:25:53;14.10;99.90
2757;DHT22;1386;50.862;6.494;2022-10-31T05:28:19;14.10;99.90
2757;DHT22;1386;50.862;6.494;2022-10-31T05:30:48;14.00;99.90
2757;DHT22;1386;50.862;6.494;2022-10-31T05:33:15;14.10;99.90
2757;DHT22;1386;50.862;6.494;2022-10-31T05:35:42;14.10;99.90
2757;DHT22;1386;50.862;6.494;2022-10-31T05:38:09;14.10;99.90
2757;DHT22;1386;50.862;6.494;2022-10-31T05:40:36;14.10;99.90
2757;DHT22;1386;50.862;6.494;2022-10-31T05:43:03;14.10;99.90
2757;DHT22;1386;50.862;6.494;2022-10-31T05:45:30;14.10;99.90
2757;DHT22;1386;50.862;6.494;2022-10-31T05:47:59;14.10;99.90
2757;DHT22;1386;50.862;6.494;2022-10-31T05:50:27;14.10;99.90
2757;DHT22;1386;50.862;6.494;2022-10-31T05:52:55;14.10;99.90
2757;DHT22;1386;50.862;6.494;2022-10-31T05:55:22;14.20;99.90
2757;DHT22;1386;50.862;6.494;2022-10-31T05:57:50;14.10;99.90
2757;DHT22;1386;50.862;6.494;2022-10-31T06:00:17;14.10;99.90
2757;DHT22;1386;50.862;6.494;2022-10-31T06:02:44;14.10;99.90
2757;DHT22;1386;50.862;6.494;2022-10-31T06:05:12;14.10;99.90
2757;DHT22;1386;50.862;6.494;2022-10-31T06:07:39;14.10;99.90
2757;DHT22;1386;50.862;6.494;2022-10-31T06:10:07;14.10;99.90
2757;DHT22;1386;50.862;6.494;2022-10-31T06:12:35;14.00;99.90
2757;DHT22;1386;50.862;6.494;2022-10-31T06:15:04;14.00;99.90
2757;DHT22;1386;50.862;6.494;2022-10-31T06:17:32;14.00;99.90
2757;DHT22;1386;50.862;6.494;2022-10-31T06:19:59;13.90;99.90
2757;DHT22;1386;50.862;6.494;2022-10-31T06:22:27;13.90;99.90
2757;DHT22;1386;50.862;6.494;2022-10-31T06:24:54;13.90;99.90
2757;DHT22;1386;50.862;6.494;2022-10-31T06:27:21;13.80;99.90
2757;DHT22;1386;50.862;6.494;2022-10-31T06:29:52;13.70;99.90
2757;DHT22;1386;50.862;6.494;2022-10-31T06:32:19;13.70;99.90
2757;DHT22;1386;50.862;6.494;2022-10-31T06:34:46;13.70;99.90
2757;DHT22;1386;50.862;6.494;2022-10-31T06:37:14;13.70;99.90
2757;DHT22;1386;50.862;6.494;2022-10-31T06:39:42;13.70;99.90
2757;DHT22;1386;50.862;6.494;2022-10-31T06:42:09;13.70;99.90
2757;DHT22;1386;50.862;6.494;2022-10-31T06:44:36;13.70;99.90
2757;DHT22;1386;50.862;6.494;2022-10-31T06:47:03;13.70;99.90
2757;DHT22;1386;50.862;6.494;2022-10-31T06:49:31;13.60;99.90
2757;DHT22;1386;50.862;6.494;2022-10-31T06:51:58;13.70;99.90
2757;DHT22;1386;50.862;6.494;2022-10-31T06:54:25;13.70;99.90
2757;DHT22;1386;50.862;6.494;2022-10-31T06:56:53;13.70;99.90
2757;DHT22;1386;50.862;6.494;2022-10-31T06:59:20;13.60;99.90
2757;DHT22;1386;50.862;6.494;2022-10-31T07:01:47;13.70;99.90
2757;DHT22;1386;50.862;6.494;2022-10-31T07:04:13;13.70;99.90
2757;DHT22;1386;50.862;6.494;2022-10-31T07:06:40;13.70;99.90
2757;DHT22;1386;50.862;6.494;2022-10-31T07:09:07;13.70;99.90
2757;DHT22;1386;50.862;6.494;2022-10-31T07:11:34;13.70;99.90
2757;DHT22;1386;50.862;6.494;2022-10-31T07:14:02;13.70;99.90
2757;DHT22;1386;50.862;6.494;2022-10-31T07:16:55;13.80;99.90
2757;DHT22;1386;50.862;6.494;2022-10-31T07:19:43;13.80;99.90
2757;DHT22;1386;50.862;6.494;2022-10-31T07:22:47;13.80;99.90
2757;DHT22;1386;50.862;6.494;2022-10-31T07:57:21;13.90;99.90
2757;DHT22;1386;50.862;6.494;2022-10-31T08:00:04;14.10;99.90
2757;DHT22;1386;50.862;6.494;2022-10-31T08:02:31;14.40;99.90
2757;DHT22;1386;50.862;6.494;2022-10-31T08:04:58;14.40;99.90
2757;DHT22;1386;50.862;6.494;2022-10-31T08:07:27;14.30;99.90
2757;DHT22;1386;50.862;6.494;2022-10-31T08:09:54;14.30;99.90
2757;DHT22;1386;50.862;6.494;2022-10-31T08:12:23;14.20;99.90
2757;DHT22;1386;50.862;6.494;2022-10-31T08:14:49;14.20;99.90
2757;DHT22;1386;50.862;6.494;2022-10-31T08:17:16;14.20;99.90
2757;DHT22;1386;50.862;6.494;2022-10-31T08:19:43;14.30;99.90
2757;DHT22;1386;50.862;6.494;2022-10-31T08:22:10;14.30;99.90
2757;DHT22;1386;50.862;6.494;2022-10-31T08:24:37;14.30;99.90
2757;DHT22;1386;50.862;6.494;2022-10-31T08:27:03;14.40;99.90
2757;DHT22;1386;50.862;6.494;2022-10-31T08:29:31;14.40;99.90
2757;DHT22;1386;50.862;6.494;2022-10-31T08:31:58;14.50;99.90
2757;DHT22;1386;50.862;6.494;2022-10-31T08:34:25;14.50;99.90
2757;DHT22;1386;50.862;6.494;2022-10-31T08:36:52;14.50;99.90
2757;DHT22;1386;50.862;6.494;2022-10-31T08:39:19;14.60;99.90
2757;DHT22;1386;50.862;6.494;2022-10-31T08:41:46;14.60;99.90
2757;DHT22;1386;50.862;6.494;2022-10-31T08:44:13;14.70;99.90
2757;DHT22;1386;50.862;6.494;2022-10-31T08:46:42;14.80;99.90
2757;DHT22;1386;50.862;6.494;2022-10-31T08:49:09;15.00;99.90
2757;DHT22;1386;50.862;6.494;2022-10-31T08:51:36;15.10;99.90
2757;DHT22;1386;50.862;6.494;2022-10-31T08:54:03;15.20;99.90
2757;DHT22;1386;50.862;6.494;2022-10-31T08:56:30;15.30;99.90
2757;DHT22;1386;50.862;6.494;2022-10-31T08:58:57;15.40;99.90
2757;DHT22;1386;50.862;6.494;2022-10-31T09:01:23;15.60;99.90
2757;DHT22;1386;50.862;6.494;2022-10-31T09:03:52;15.70;99.90
2757;DHT22;1386;50.862;6.494;2022-10-31T09:06:18;15.70;99.90
2757;DHT22;1386;50.862;6.494;2022-10-31T09:08:45;15.70;99.90
2757;DHT22;1386;50.862;6.494;2022-10-31T09:11:12;15.70;99.90
2757;DHT22;1386;50.862;6.494;2022-10-31T09:13:39;15.80;99.90
2757;DHT22;1386;50.862;6.494;2022-10-31T09:16:06;15.80;99.90
2757;DHT22;1386;50.862;6.494;2022-10-31T09:18:33;15.70;99.90
2757;DHT22;1386;50.862;6.494;2022-10-31T09:21:02;15.70;99.90
2757;DHT22;1386;50.862;6.494;2022-10-31T09:23:28;15.70;99.90
2757;DHT22;1386;50.862;6.494;2022-10-31T09:25:59;15.70;99.90
2757;DHT22;1386;50.862;6.494;2022-10-31T09:28:26;15.60;99.90
2757;DHT22;1386;50.862;6.494;2022-10-31T09:30:54;15.60;99.90
2757;DHT22;1386;50.862;6.494;2022-10-31T09:33:21;15.50;99.90
2757;DHT22;1386;50.862;6.494;2022-10-31T09:35:48;15.50;99.90
2757;DHT22;1386;50.862;6.494;2022-10-31T09:38:17;15.60;99.90
2757;DHT22;1386;50.862;6.494;2022-10-31T09:40:47;15.60;99.90
2757;DHT22;1386;50.862;6.494;2022-10-31T09:43:20;15.60;99.90
2757;DHT22;1386;50.862;6.494;2022-10-31T09:45:56;15.70;99.90
2757;DHT22;1386;50.862;6.494;2022-10-31T09:48:41;15.80;99.90
2757;DHT22;1386;50.862;6.494;2022-10-31T09:51:12;15.90;99.90
2757;DHT22;1386;50.862;6.494;2022-10-31T09:53:44;16.10;99.90
2757;DHT22;1386;50.862;6.494;2022-10-31T09:56:14;16.30;99.90
2757;DHT22;1386;50.862;6.494;2022-10-31T09:58:44;16.40;99.90
2757;DHT22;1386;50.862;6.494;2022-10-31T10:01:30;16.40;99.90
2757;DHT22;1386;50.862;6.494;2022-10-31T10:04:02;16.40;99.90
2757;DHT22;1386;50.862;6.494;2022-10-31T10:06:34;16.50;99.90
2757;DHT22;1386;50.862;6.494;2022-10-31T10:09:04;16.50;99.90
2757;DHT22;1386;50.862;6.494;2022-10-31T10:11:41;16.60;99.90
2757;DHT22;1386;50.862;6.494;2022-10-31T10:14:26;16.70;99.90
2757;DHT22;1386;50.862;6.494;2022-10-31T10:17:06;16.90;99.90
2757;DHT22;1386;50.862;6.494;2022-10-31T10:19:51;17.10;99.90
2757;DHT22;1386;50.862;6.494;2022-10-31T10:22:24;17.10;99.90
2757;DHT22;1386;50.862;6.494;2022-10-31T10:27:46;17.20;99.90
2757;DHT22;1386;50.862;6.494;2022-10-31T10:30:16;17.30;99.90
2757;DHT22;1386;50.862;6.494;2022-10-31T10:32:45;17.30;99.90
2757;DHT22;1386;50.862;6.494;2022-10-31T10:35:22;17.30;99.90
2757;DHT22;1386;50.862;6.494;2022-10-31T10:37:53;17.50;99.90
2757;DHT22;1386;50.862;6.494;2022-10-31T10:40:25;17.50;99.90
2757;DHT22;1386;50.862;6.494;2022-10-31T10:43:22;17.60;99.90
2757;DHT22;1386;50.862;6.494;2022-10-31T10:45:57;17.70;99.90
2757;DHT22;1386;50.862;6.494;2022-10-31T10:48:45;17.80;99.90
2757;DHT22;1386;50.862;6.494;2022-10-31T10:51:22;17.90;99.90
2757;DHT22;1386;50.862;6.494;2022-10-31T10:54:04;17.90;99.90
2757;DHT22;1386;50.862;6.494;2022-10-31T10:56:51;18.00;99.90
2757;DHT22;1386;50.862;6.494;2022-10-31T10:59:21;18.00;99.90
2757;DHT22;1386;50.862;6.494;2022-10-31T11:01:49;18.00;99.90
2757;DHT22;1386;50.862;6.494;2022-10-31T11:04:28;18.10;99.90
2757;DHT22;1386;50.862;6.494;2022-10-31T11:07:03;18.20;99.90
2757;DHT22;1386;50.862;6.494;2022-10-31T11:09:30;18.20;99.90
2757;DHT22;1386;50.862;6.494;2022-10-31T11:12:00;18.40;99.90
2757;DHT22;1386;50.862;6.494;2022-10-31T11:14:35;18.40;99.90
2757;DHT22;1386;50.862;6.494;2022-10-31T11:17:10;18.50;99.90
2757;DHT22;1386;50.862;6.494;2022-10-31T11:19:37;18.50;99.90
2757;DHT22;1386;50.862;6.494;2022-10-31T11:22:12;18.50;99.90
2757;DHT22;1386;50.862;6.494;2022-10-31T11:24:42;18.50;99.90
2757;DHT22;1386;50.862;6.494;2022-10-31T11:27:16;18.60;99.90
2757;DHT22;1386;50.862;6.494;2022-10-31T11:29:43;18.60;99.90
2757;DHT22;1386;50.862;6.494;2022-10-31T11:32:19;18.60;99.90
2757;DHT22;1386;50.862;6.494;2022-10-31T11:34:48;18.50;99.90
2757;DHT22;1386;50.862;6.494;2022-10-31T11:37:54;18.40;99.90
2757;DHT22;1386;50.862;6.494;2022-10-31T11:40:39;18.30;99.90
2757;DHT22;1386;50.862;6.494;2022-10-31T11:43:19;18.30;99.90
2757;DHT22;1386;50.862;6.494;2022-10-31T11:45:46;18.20;99.90
2757;DHT22;1386;50.862;6.494;2022-10-31T11:48:17;18.20;99.90
2757;DHT22;1386;50.862;6.494;2022-10-31T11:50:49;18.10;99.90
2757;DHT22;1386;50.862;6.494;2022-10-31T11:53:17;18.00;99.90
2757;DHT22;1386;50.862;6.494;2022-10-31T11:55:46;18.10;99.90
2757;DHT22;1386;50.862;6.494;2022-10-31T11:58:25;18.00;99.90
2757;DHT22;1386;50.862;6.494;2022-10-31T12:00:55;17.90;99.90
2757;DHT22;1386;50.862;6.494;2022-10-31T12:03:42;17.90;99.90
2757;DHT22;1386;50.862;6.494;2022-10-31T12:06:14;18.00;99.90
2757;DHT22;1386;50.862;6.494;2022-10-31T12:08:43;18.10;99.90
2757;DHT22;1386;50.862;6.494;2022-10-31T12:11:27;18.00;99.90
2757;DHT22;1386;50.862;6.494;2022-10-31T12:14:08;18.00;99.90
2757;DHT22;1386;50.862;6.494;2022-10-31T12:16:45;17.90;99.90
2757;DHT22;1386;50.862;6.494;2022-10-31T12:19:25;17.90;99.90
2757;DHT22;1386;50.862;6.494;2022-10-31T12:22:06;17.90;99.90
2757;DHT22;1386;50.862;6.494;2022-10-31T12:31:37;17.70;99.90
2757;DHT22;1386;50.862;6.494;2022-10-31T12:37:27;17.70;99.90
2757;DHT22;1386;50.862;6.494;2022-10-31T12:40:09;17.70;99.90
2757;DHT22;1386;50.862;6.494;2022-10-31T12:42:47;17.70;99.90
2757;DHT22;1386;50.862;6.494;2022-10-31T12:45:38;17.80;99.90
2757;DHT22;1386;50.862;6.494;2022-10-31T12:48:28;17.80;99.90
2757;DHT22;1386;50.862;6.494;2022-10-31T12:51:20;17.70;99.90
2757;DHT22;1386;50.862;6.494;2022-10-31T12:54:14;17.70;99.90
2757;DHT22;1386;50.862;6.494;2022-10-31T12:56:50;17.70;99.90
2757;DHT22;1386;50.862;6.494;2022-10-31T12:59:31;17.70;99.90
2757;DHT22;1386;50.862;6.494;2022-10-31T13:02:04;17.70;99.90
2757;DHT22;1386;50.862;6.494;2022-10-31T13:04:43;17.70;99.90
2757;DHT22;1386;50.862;6.494;2022-10-31T13:07:15;17.70;99.90
2757;DHT22;1386;50.862;6.494;2022-10-31T13:09:50;17.70;99.90
2757;DHT22;1386;50.862;6.494;2022-10-31T13:12:36;17.70;99.90
2757;DHT22;1386;50.862;6.494;2022-10-31T13:15:20;17.70;99.90
2757;DHT22;1386;50.862;6.494;2022-10-31T13:35:03;17.50;99.90
2757;DHT22;1386;50.862;6.494;2022-10-31T13:37:34;17.40;99.90
2757;DHT22;1386;50.862;6.494;2022-10-31T13:40:12;17.50;99.90
2757;DHT22;1386;50.862;6.494;2022-10-31T13:42:55;17.50;99.90
2757;DHT22;1386;50.862;6.494;2022-10-31T13:45:24;17.50;99.90
2757;DHT22;1386;50.862;6.494;2022-10-31T13:47:56;17.50;99.90
2757;DHT22;1386;50.862;6.494;2022-10-31T13:50:26;17.50;99.90
2757;DHT22;1386;50.862;6.494;2022-10-31T13:53:11;17.50;99.90
2757;DHT22;1386;50.862;6.494;2022-10-31T13:55:44;17.50;99.90
2757;DHT22;1386;50.862;6.494;2022-10-31T13:58:25;17.50;99.90
2757;DHT22;1386;50.862;6.494;2022-10-31T14:01:20;17.40;99.90
2757;DHT22;1386;50.862;6.494;2022-10-31T14:03:56;17.40;99.90
2757;DHT22;1386;50.862;6.494;2022-10-31T14:06:41;17.40;99.90
2757;DHT22;1386;50.862;6.494;2022-10-31T14:09:22;17.40;99.90
2757;DHT22;1386;50.862;6.494;2022-10-31T14:11:51;17.40;99.90
2757;DHT22;1386;50.862;6.494;2022-10-31T20:13:49;15.00;99.90
2757;DHT22;1386;50.862;6.494;2022-10-31T20:16:17;14.90;99.90
2757;DHT22;1386;50.862;6.494;2022-10-31T20:18:43;14.80;99.90
2757;DHT22;1386;50.862;6.494;2022-10-31T20:21:12;14.80;99.90
2757;DHT22;1386;50.862;6.494;2022-10-31T20:23:40;14.70;99.90
2757;DHT22;1386;50.862;6.494;2022-10-31T20:26:08;14.70;99.90
2757;DHT22;1386;50.862;6.494;2022-10-31T20:28:36;14.60;99.90
2757;DHT22;1386;50.862;6.494;2022-10-31T20:31:08;14.50;99.90
2757;DHT22;1386;50.862;6.494;2022-10-31T20:33:36;14.50;99.90
2757;DHT22;1386;50.862;6.494;2022-10-31T20:36:03;14.40;99.90
2757;DHT22;1386;50.862;6.494;2022-10-31T20:38:30;14.50;99.90
2757;DHT22;1386;50.862;6.494;2022-10-31T20:40:59;14.40;99.90
2757;DHT22;1386;50.862;6.494;2022-10-31T20:43:26;14.40;99.90
2757;DHT22;1386;50.862;6.494;2022-10-31T20:45:58;14.40;99.90
2757;DHT22;1386;50.862;6.494;2022-10-31T20:48:26;14.30;99.90
2757;DHT22;1386;50.862;6.494;2022-10-31T20:50:57;14.30;99.90
2757;DHT22;1386;50.862;6.494;2022-10-31T20:53:24;14.30;99.90
2757;DHT22;1386;50.862;6.494;2022-10-31T20:55:59;14.20;99.90
2757;DHT22;1386;50.862;6.494;2022-10-31T20:58:26;14.20;99.90
2757;DHT22;1386;50.862;6.494;2022-10-31T21:00:53;14.30;99.90
2757;DHT22;1386;50.862;6.494;2022-10-31T21:03:20;14.30;99.90
2757;DHT22;1386;50.862;6.494;2022-10-31T21:05:56;14.30;99.90
2757;DHT22;1386;50.862;6.494;2022-10-31T21:08:24;14.20;99.90
2757;DHT22;1386;50.862;6.494;2022-10-31T21:10:51;14.20;99.90
2757;DHT22;1386;50.862;6.494;2022-10-31T21:13:19;14.20;99.90
2757;DHT22;1386;50.862;6.494;2022-10-31T21:15:46;14.20;99.90
2757;DHT22;1386;50.862;6.494;2022-10-31T21:18:13;14.20;99.90
2757;DHT22;1386;50.862;6.494;2022-10-31T21:20:41;14.20;99.90
2757;DHT22;1386;50.862;6.494;2022-10-31T21:23:10;14.20;99.90
2757;DHT22;1386;50.862;6.494;2022-10-31T21:25:38;14.30;99.90
2757;DHT22;1386;50.862;6.494;2022-10-31T21:28:05;14.30;99.90
2757;DHT22;1386;50.862;6.494;2022-10-31T21:30:32;14.50;99.90
2757;DHT22;1386;50.862;6.494;2022-10-31T21:32:59;14.70;99.90
2757;DHT22;1386;50.862;6.494;2022-10-31T21:35:26;14.90;99.90
2757;DHT22;1386;50.862;6.494;2022-10-31T21:37:53;15.10;99.90
2757;DHT22;1386;50.862;6.494;2022-10-31T21:40:21;15.50;99.90
2757;DHT22;1386;50.862;6.494;2022-10-31T21:42:48;15.60;99.90
2757;DHT22;1386;50.862;6.494;2022-10-31T21:45:15;15.90;99.90
2757;DHT22;1386;50.862;6.494;2022-10-31T21:47:41;15.90;99.90
2757;DHT22;1386;50.862;6.494;2022-10-31T21:50:09;16.00;99.90
2757;DHT22;1386;50.862;6.494;2022-10-31T21:52:35;16.10;99.90
2757;DHT22;1386;50.862;6.494;2022-10-31T21:55:02;16.20;99.90
2757;DHT22;1386;50.862;6.494;2022-10-31T21:57:30;16.20;99.90
2757;DHT22;1386;50.862;6.494;2022-10-31T21:59:57;16.30;99.90
2757;DHT22;1386;50.862;6.494;2022-10-31T22:02:24;16.30;99.90
2757;DHT22;1386;50.862;6.494;2022-10-31T22:04:51;16.40;99.90
2757;DHT22;1386;50.862;6.494;2022-10-31T22:07:18;16.50;99.90
2757;DHT22;1386;50.862;6.494;2022-10-31T22:09:45;16.50;99.90
2757;DHT22;1386;50.862;6.494;2022-10-31T22:12:12;16.50;99.90
2757;DHT22;1386;50.862;6.494;2022-10-31T22:14:40;16.60;99.90
2757;DHT22;1386;50.862;6.494;2022-10-31T22:17:07;16.70;99.90
2757;DHT22;1386;50.862;6.494;2022-10-31T22:19:34;16.80;99.90
2757;DHT22;1386;50.862;6.494;2022-10-31T22:22:02;16.70;99.90
2757;DHT22;1386;50.862;6.494;2022-10-31T22:24:28;16.80;99.90
2757;DHT22;1386;50.862;6.494;2022-10-31T22:26:55;16.90;99.90
2757;DHT22;1386;50.862;6.494;2022-10-31T22:29:22;17.00;99.90
2757;DHT22;1386;50.862;6.494;2022-10-31T22:31:50;16.90;99.90
2757;DHT22;1386;50.862;6.494;2022-10-31T22:34:17;17.00;99.90
2757;DHT22;1386;50.862;6.494;2022-10-31T22:36:44;17.00;99.90
2757;DHT22;1386;50.862;6.494;2022-10-31T22:39:12;17.00;99.90
2757;DHT22;1386;50.862;6.494;2022-10-31T22:41:39;16.90;99.90
2757;DHT22;1386;50.862;6.494;2022-10-31T22:44:06;16.90;99.90
2757;DHT22;1386;50.862;6.494;2022-10-31T22:46:35;16.80;99.90
2757;DHT22;1386;50.862;6.494;2022-10-31T22:49:05;16.80;99.90
2757;DHT22;1386;50.862;6.494;2022-10-31T22:51:34;16.90;99.90
2757;DHT22;1386;50.862;6.494;2022-10-31T22:54:02;16.90;99.90
2757;DHT22;1386;50.862;6.494;2022-10-31T22:56:31;16.90;99.90
2757;DHT22;1386;50.862;6.494;2022-10-31T22:58:59;17.00;99.90
2757;DHT22;1386;50.862;6.494;2022-10-31T23:01:28;17.10;99.90
2757;DHT22;1386;50.862;6.494;2022-10-31T23:03:55;17.10;99.90
2757;DHT22;1386;50.862;6.494;2022-10-31T23:06:26;17.20;99.90
2757;DHT22;1386;50.862;6.494;2022-10-31T23:08:54;17.20;99.90
2757;DHT22;1386;50.862;6.494;2022-10-31T23:11:23;17.30;99.90
2757;DHT22;1386;50.862;6.494;2022-10-31T23:13:51;17.30;99.90
2757;DHT22;1386;50.862;6.494;2022-10-31T23:16:41;17.30;99.90
2757;DHT22;1386;50.862;6.494;2022-10-31T23:19:11;17.40;99.90
2757;DHT22;1386;50.862;6.494;2022-10-31T23:21:41;17.40;99.90
2757;DHT22;1386;50.862;6.494;2022-10-31T23:24:22;17.40;99.90
2757;DHT22;1386;50.862;6.494;2022-10-31T23:26:50;17.50;99.90
2757;DHT22;1386;50.862;6.494;2022-10-31T23:29:36;17.50;99.90
2757;DHT22;1386;50.862;6.494;2022-10-31T23:32:05;17.50;99.90
2757;DHT22;1386;50.862;6.494;2022-10-31T23:34:32;17.50;99.90
2757;DHT22;1386;50.862;6.494;2022-10-31T23:37:00;17.50;99.90
2757;DHT22;1386;50.862;6.494;2022-10-31T23:39:27;17.50;99.90
2757;DHT22;1386;50.862;6.494;2022-10-31T23:41:54;17.50;99.90
2757;DHT22;1386;50.862;6.494;2022-10-31T23:44:21;17.50;99.90
2757;DHT22;1386;50.862;6.494;2022-10-31T23:46:47;17.50;99.90
2757;DHT22;1386;50.862;6.494;2022-10-31T23:49:14;17.50;99.90
2757;DHT22;1386;50.862;6.494;2022-10-31T23:51:41;17.50;99.90
2757;DHT22;1386;50.862;6.494;2022-10-31T23:54:09;17.50;99.90
2757;DHT22;1386;50.862;6.494;2022-10-31T23:56:36;17.50;99.90
2757;DHT22;1386;50.862;6.494;2022-10-31T23:59:03;17.50;99.90
